sensor_id;sensor_type;location;lat;lon;timestamp;P1;durP1;ratioP1;P2;durP2;ratioP2
12591;SDS011;6361;52.120;5.108;2024-03-17T00:02:11;12.93;;;3.97;;
12591;SDS011;6361;52.120;5.108;2024-03-17T00:04:36;14.20;;;4.72;;
12591;SDS011;6361;52.120;5.108;2024-03-17T00:07:01;11.75;;;4.70;;
12591;SDS011;6361;52.120;5.108;2024-03-17T00:09:27;11.65;;;4.35;;
12591;SDS011;6361;52.120;5.108;2024-03-17T00:11:52;9.65;;;4.38;;
12591;SDS011;6361;52.120;5.108;2024-03-17T00:14:18;14.18;;;4.50;;
12591;SDS011;6361;52.120;5.108;2024-03-17T00:16:43;11.23;;;4.50;;
12591;SDS011;6361;52.120;5.108;2024-03-17T00:19:09;14.30;;;5.18;;
12591;SDS011;6361;52.120;5.108;2024-03-17T00:21:35;11.35;;;4.80;;
12591;SDS011;6361;52.120;5.108;2024-03-17T00:24:00;11.45;;;4.68;;
12591;SDS011;6361;52.120;5.108;2024-03-17T00:26:27;15.77;;;4.78;;
12591;SDS011;6361;52.120;5.108;2024-03-17T00:28:54;16.52;;;5.60;;
12591;SDS011;6361;52.120;5.108;2024-03-17T00:31:19;19.08;;;5.55;;
12591;SDS011;6361;52.120;5.108;2024-03-17T00:33:44;14.88;;;5.75;;
12591;SDS011;6361;52.120;5.108;2024-03-17T00:36:11;14.57;;;5.40;;
12591;SDS011;6361;52.120;5.108;2024-03-17T00:38:36;15.05;;;5.57;;
12591;SDS011;6361;52.120;5.108;2024-03-17T00:41:02;16.92;;;5.80;;
12591;SDS011;6361;52.120;5.108;2024-03-17T00:43:28;17.10;;;5.45;;
12591;SDS011;6361;52.120;5.108;2024-03-17T00:45:54;14.27;;;5.97;;
12591;SDS011;6361;52.120;5.108;2024-03-17T00:48:19;11.93;;;5.55;;
12591;SDS011;6361;52.120;5.108;2024-03-17T00:50:45;13.70;;;5.68;;
12591;SDS011;6361;52.120;5.108;2024-03-17T00:53:13;14.48;;;5.78;;
12591;SDS011;6361;52.120;5.108;2024-03-17T00:55:39;15.55;;;6.60;;
12591;SDS011;6361;52.120;5.108;2024-03-17T00:58:04;17.00;;;6.55;;
12591;SDS011;6361;52.120;5.108;2024-03-17T01:00:30;14.77;;;6.35;;
12591;SDS011;6361;52.120;5.108;2024-03-17T01:02:55;16.25;;;6.70;;
12591;SDS011;6361;52.120;5.108;2024-03-17T01:05:21;16.45;;;6.55;;
12591;SDS011;6361;52.120;5.108;2024-03-17T01:07:46;15.48;;;6.68;;
12591;SDS011;6361;52.120;5.108;2024-03-17T01:10:15;13.32;;;6.53;;
12591;SDS011;6361;52.120;5.108;2024-03-17T01:12:40;14.43;;;6.75;;
12591;SDS011;6361;52.120;5.108;2024-03-17T01:15:06;14.50;;;6.53;;
12591;SDS011;6361;52.120;5.108;2024-03-17T01:17:31;13.70;;;6.15;;
12591;SDS011;6361;52.120;5.108;2024-03-17T01:19:57;17.35;;;7.20;;
12591;SDS011;6361;52.120;5.108;2024-03-17T01:22:23;14.95;;;6.50;;
12591;SDS011;6361;52.120;5.108;2024-03-17T01:24:48;15.48;;;7.07;;
12591;SDS011;6361;52.120;5.108;2024-03-17T01:27:13;14.32;;;6.78;;
12591;SDS011;6361;52.120;5.108;2024-03-17T01:29:39;15.00;;;6.75;;
12591;SDS011;6361;52.120;5.108;2024-03-17T01:32:05;12.05;;;6.55;;
12591;SDS011;6361;52.120;5.108;2024-03-17T01:34:31;14.90;;;7.07;;
12591;SDS011;6361;52.120;5.108;2024-03-17T01:36:56;13.35;;;6.43;;
12591;SDS011;6361;52.120;5.108;2024-03-17T01:39:22;9.73;;;6.28;;
12591;SDS011;6361;52.120;5.108;2024-03-17T01:41:47;13.57;;;6.72;;
12591;SDS011;6361;52.120;5.108;2024-03-17T01:44:27;12.95;;;6.35;;
12591;SDS011;6361;52.120;5.108;2024-03-17T01:46:54;11.35;;;6.32;;
12591;SDS011;6361;52.120;5.108;2024-03-17T01:49:20;16.55;;;6.55;;
12591;SDS011;6361;52.120;5.108;2024-03-17T01:51:46;13.30;;;6.80;;
12591;SDS011;6361;52.120;5.108;2024-03-17T01:54:12;10.43;;;6.53;;
12591;SDS011;6361;52.120;5.108;2024-03-17T01:56:38;11.95;;;6.65;;
12591;SDS011;6361;52.120;5.108;2024-03-17T01:59:04;18.02;;;7.05;;
12591;SDS011;6361;52.120;5.108;2024-03-17T02:01:30;11.32;;;6.20;;
12591;SDS011;6361;52.120;5.108;2024-03-17T02:03:55;11.43;;;6.70;;
12591;SDS011;6361;52.120;5.108;2024-03-17T02:06:21;17.50;;;7.38;;
12591;SDS011;6361;52.120;5.108;2024-03-17T02:11:23;16.33;;;6.50;;
12591;SDS011;6361;52.120;5.108;2024-03-17T02:13:48;13.18;;;6.90;;
12591;SDS011;6361;52.120;5.108;2024-03-17T02:16:15;11.75;;;6.85;;
12591;SDS011;6361;52.120;5.108;2024-03-17T02:18:40;12.07;;;6.38;;
12591;SDS011;6361;52.120;5.108;2024-03-17T02:21:05;12.07;;;6.97;;
12591;SDS011;6361;52.120;5.108;2024-03-17T02:23:33;14.23;;;6.47;;
12591;SDS011;6361;52.120;5.108;2024-03-17T02:25:58;14.90;;;7.25;;
12591;SDS011;6361;52.120;5.108;2024-03-17T02:28:23;14.35;;;7.00;;
12591;SDS011;6361;52.120;5.108;2024-03-17T02:30:49;13.40;;;7.28;;
12591;SDS011;6361;52.120;5.108;2024-03-17T02:33:14;10.20;;;6.75;;
12591;SDS011;6361;52.120;5.108;2024-03-17T02:35:40;16.30;;;7.20;;
12591;SDS011;6361;52.120;5.108;2024-03-17T02:38:06;18.90;;;7.05;;
12591;SDS011;6361;52.120;5.108;2024-03-17T02:40:32;11.27;;;7.10;;
12591;SDS011;6361;52.120;5.108;2024-03-17T02:42:58;13.57;;;6.65;;
12591;SDS011;6361;52.120;5.108;2024-03-17T02:45:24;14.18;;;7.80;;
12591;SDS011;6361;52.120;5.108;2024-03-17T02:47:49;16.10;;;7.22;;
12591;SDS011;6361;52.120;5.108;2024-03-17T02:50:15;12.05;;;7.40;;
12591;SDS011;6361;52.120;5.108;2024-03-17T02:52:40;11.88;;;7.28;;
12591;SDS011;6361;52.120;5.108;2024-03-17T02:55:06;11.63;;;7.00;;
12591;SDS011;6361;52.120;5.108;2024-03-17T02:57:31;11.25;;;7.13;;
12591;SDS011;6361;52.120;5.108;2024-03-17T02:59:57;12.82;;;7.60;;
12591;SDS011;6361;52.120;5.108;2024-03-17T03:02:23;14.18;;;7.93;;
12591;SDS011;6361;52.120;5.108;2024-03-17T03:04:49;13.07;;;7.22;;
12591;SDS011;6361;52.120;5.108;2024-03-17T03:07:14;14.57;;;7.53;;
12591;SDS011;6361;52.120;5.108;2024-03-17T03:09:40;10.90;;;7.05;;
12591;SDS011;6361;52.120;5.108;2024-03-17T03:12:05;12.00;;;7.50;;
12591;SDS011;6361;52.120;5.108;2024-03-17T03:14:32;14.20;;;7.68;;
12591;SDS011;6361;52.120;5.108;2024-03-17T03:16:58;16.52;;;7.50;;
12591;SDS011;6361;52.120;5.108;2024-03-17T03:19:23;13.48;;;8.05;;
12591;SDS011;6361;52.120;5.108;2024-03-17T03:21:49;15.50;;;7.38;;
12591;SDS011;6361;52.120;5.108;2024-03-17T03:24:15;11.57;;;7.57;;
12591;SDS011;6361;52.120;5.108;2024-03-17T03:26:40;14.60;;;7.97;;
12591;SDS011;6361;52.120;5.108;2024-03-17T03:29:06;13.85;;;7.80;;
12591;SDS011;6361;52.120;5.108;2024-03-17T03:31:32;15.50;;;7.55;;
12591;SDS011;6361;52.120;5.108;2024-03-17T03:33:57;15.93;;;7.65;;
12591;SDS011;6361;52.120;5.108;2024-03-17T03:36:26;13.60;;;7.97;;
12591;SDS011;6361;52.120;5.108;2024-03-17T03:38:51;13.77;;;8.13;;
12591;SDS011;6361;52.120;5.108;2024-03-17T03:41:17;11.50;;;7.88;;
12591;SDS011;6361;52.120;5.108;2024-03-17T03:43:42;15.38;;;8.45;;
12591;SDS011;6361;52.120;5.108;2024-03-17T03:46:08;14.38;;;7.78;;
12591;SDS011;6361;52.120;5.108;2024-03-17T03:48:33;14.73;;;8.07;;
12591;SDS011;6361;52.120;5.108;2024-03-17T03:51:03;12.85;;;7.85;;
12591;SDS011;6361;52.120;5.108;2024-03-17T03:53:29;12.18;;;7.90;;
12591;SDS011;6361;52.120;5.108;2024-03-17T03:55:55;10.95;;;7.50;;
12591;SDS011;6361;52.120;5.108;2024-03-17T03:58:20;16.10;;;7.95;;
12591;SDS011;6361;52.120;5.108;2024-03-17T04:00:46;13.35;;;8.07;;
12591;SDS011;6361;52.120;5.108;2024-03-17T04:03:11;11.40;;;7.95;;
12591;SDS011;6361;52.120;5.108;2024-03-17T04:05:36;14.77;;;7.97;;
12591;SDS011;6361;52.120;5.108;2024-03-17T04:08:02;13.68;;;8.02;;
12591;SDS011;6361;52.120;5.108;2024-03-17T04:10:27;14.48;;;8.25;;
12591;SDS011;6361;52.120;5.108;2024-03-17T04:12:53;18.58;;;8.65;;
12591;SDS011;6361;52.120;5.108;2024-03-17T04:15:18;15.35;;;9.00;;
12591;SDS011;6361;52.120;5.108;2024-03-17T04:17:44;15.68;;;9.45;;
12591;SDS011;6361;52.120;5.108;2024-03-17T04:20:10;16.98;;;9.25;;
12591;SDS011;6361;52.120;5.108;2024-03-17T04:22:38;12.85;;;8.98;;
12591;SDS011;6361;52.120;5.108;2024-03-17T04:25:04;15.57;;;9.18;;
12591;SDS011;6361;52.120;5.108;2024-03-17T04:27:29;12.43;;;8.63;;
12591;SDS011;6361;52.120;5.108;2024-03-17T04:29:55;14.10;;;8.75;;
12591;SDS011;6361;52.120;5.108;2024-03-17T04:32:22;17.30;;;9.02;;
12591;SDS011;6361;52.120;5.108;2024-03-17T04:34:48;17.33;;;9.75;;
12591;SDS011;6361;52.120;5.108;2024-03-17T04:37:13;13.15;;;9.25;;
12591;SDS011;6361;52.120;5.108;2024-03-17T04:39:39;15.32;;;9.25;;
12591;SDS011;6361;52.120;5.108;2024-03-17T04:42:05;18.73;;;9.65;;
12591;SDS011;6361;52.120;5.108;2024-03-17T04:44:31;18.05;;;9.82;;
12591;SDS011;6361;52.120;5.108;2024-03-17T04:46:57;15.50;;;9.45;;
12591;SDS011;6361;52.120;5.108;2024-03-17T04:49:23;13.18;;;9.95;;
12591;SDS011;6361;52.120;5.108;2024-03-17T04:51:48;13.75;;;10.00;;
12591;SDS011;6361;52.120;5.108;2024-03-17T04:54:13;16.05;;;11.00;;
12591;SDS011;6361;52.120;5.108;2024-03-17T04:56:39;15.82;;;10.10;;
12591;SDS011;6361;52.120;5.108;2024-03-17T04:59:04;15.68;;;10.50;;
12591;SDS011;6361;52.120;5.108;2024-03-17T05:01:30;16.77;;;11.07;;
12591;SDS011;6361;52.120;5.108;2024-03-17T05:04:00;17.83;;;10.30;;
12591;SDS011;6361;52.120;5.108;2024-03-17T05:06:28;16.02;;;10.43;;
12591;SDS011;6361;52.120;5.108;2024-03-17T05:08:53;15.88;;;10.43;;
12591;SDS011;6361;52.120;5.108;2024-03-17T05:11:18;14.13;;;10.02;;
12591;SDS011;6361;52.120;5.108;2024-03-17T05:13:44;18.45;;;11.05;;
12591;SDS011;6361;52.120;5.108;2024-03-17T05:16:10;15.55;;;10.45;;
12591;SDS011;6361;52.120;5.108;2024-03-17T05:18:36;15.32;;;10.75;;
12591;SDS011;6361;52.120;5.108;2024-03-17T05:21:04;15.48;;;10.10;;
12591;SDS011;6361;52.120;5.108;2024-03-17T05:23:31;18.65;;;10.80;;
12591;SDS011;6361;52.120;5.108;2024-03-17T05:25:57;15.15;;;10.13;;
12591;SDS011;6361;52.120;5.108;2024-03-17T05:28:23;16.17;;;10.02;;
12591;SDS011;6361;52.120;5.108;2024-03-17T05:30:50;15.18;;;9.82;;
12591;SDS011;6361;52.120;5.108;2024-03-17T05:33:18;17.42;;;10.55;;
12591;SDS011;6361;52.120;5.108;2024-03-17T05:35:59;17.38;;;10.60;;
12591;SDS011;6361;52.120;5.108;2024-03-17T05:38:26;15.75;;;10.73;;
12591;SDS011;6361;52.120;5.108;2024-03-17T05:40:55;16.70;;;10.20;;
12591;SDS011;6361;52.120;5.108;2024-03-17T05:43:22;16.05;;;10.20;;
12591;SDS011;6361;52.120;5.108;2024-03-17T05:45:51;15.40;;;10.65;;
12591;SDS011;6361;52.120;5.108;2024-03-17T05:48:18;14.77;;;10.52;;
12591;SDS011;6361;52.120;5.108;2024-03-17T05:50:43;16.13;;;10.52;;
12591;SDS011;6361;52.120;5.108;2024-03-17T05:53:08;14.38;;;10.30;;
12591;SDS011;6361;52.120;5.108;2024-03-17T05:55:37;15.63;;;10.13;;
12591;SDS011;6361;52.120;5.108;2024-03-17T05:58:03;14.73;;;10.35;;
12591;SDS011;6361;52.120;5.108;2024-03-17T06:00:28;20.70;;;10.50;;
12591;SDS011;6361;52.120;5.108;2024-03-17T06:02:55;17.63;;;10.50;;
12591;SDS011;6361;52.120;5.108;2024-03-17T06:05:20;14.13;;;10.05;;
12591;SDS011;6361;52.120;5.108;2024-03-17T06:07:46;17.08;;;10.00;;
12591;SDS011;6361;52.120;5.108;2024-03-17T06:10:12;15.98;;;10.00;;
12591;SDS011;6361;52.120;5.108;2024-03-17T06:12:37;13.95;;;9.98;;
12591;SDS011;6361;52.120;5.108;2024-03-17T06:15:03;13.10;;;10.10;;
12591;SDS011;6361;52.120;5.108;2024-03-17T06:17:28;18.50;;;10.45;;
12591;SDS011;6361;52.120;5.108;2024-03-17T06:19:54;17.00;;;9.95;;
12591;SDS011;6361;52.120;5.108;2024-03-17T06:22:19;15.35;;;9.73;;
12591;SDS011;6361;52.120;5.108;2024-03-17T06:24:44;17.05;;;9.82;;
12591;SDS011;6361;52.120;5.108;2024-03-17T06:27:10;15.93;;;10.02;;
12591;SDS011;6361;52.120;5.108;2024-03-17T06:29:35;17.25;;;10.55;;
12591;SDS011;6361;52.120;5.108;2024-03-17T06:32:00;13.88;;;10.02;;
12591;SDS011;6361;52.120;5.108;2024-03-17T06:34:27;16.73;;;10.20;;
12591;SDS011;6361;52.120;5.108;2024-03-17T06:36:52;13.60;;;9.98;;
12591;SDS011;6361;52.120;5.108;2024-03-17T06:39:17;14.77;;;10.27;;
12591;SDS011;6361;52.120;5.108;2024-03-17T06:41:44;13.85;;;9.82;;
12591;SDS011;6361;52.120;5.108;2024-03-17T06:44:10;13.20;;;9.60;;
12591;SDS011;6361;52.120;5.108;2024-03-17T06:46:35;18.05;;;10.82;;
12591;SDS011;6361;52.120;5.108;2024-03-17T06:49:01;13.73;;;9.80;;
12591;SDS011;6361;52.120;5.108;2024-03-17T06:51:26;15.50;;;10.68;;
12591;SDS011;6361;52.120;5.108;2024-03-17T06:53:51;13.93;;;10.05;;
12591;SDS011;6361;52.120;5.108;2024-03-17T06:56:17;16.23;;;9.95;;
12591;SDS011;6361;52.120;5.108;2024-03-17T06:58:43;15.55;;;9.93;;
12591;SDS011;6361;52.120;5.108;2024-03-17T07:01:08;14.95;;;10.18;;
12591;SDS011;6361;52.120;5.108;2024-03-17T07:03:34;19.25;;;10.80;;
12591;SDS011;6361;52.120;5.108;2024-03-17T07:06:00;17.23;;;11.07;;
12591;SDS011;6361;52.120;5.108;2024-03-17T07:08:28;14.88;;;10.98;;
12591;SDS011;6361;52.120;5.108;2024-03-17T07:11:00;16.05;;;11.80;;
12591;SDS011;6361;52.120;5.108;2024-03-17T07:13:28;14.80;;;10.57;;
12591;SDS011;6361;52.120;5.108;2024-03-17T07:15:55;16.17;;;10.60;;
12591;SDS011;6361;52.120;5.108;2024-03-17T07:18:20;14.75;;;11.07;;
12591;SDS011;6361;52.120;5.108;2024-03-17T07:20:45;15.25;;;11.10;;
12591;SDS011;6361;52.120;5.108;2024-03-17T07:23:13;17.13;;;11.48;;
12591;SDS011;6361;52.120;5.108;2024-03-17T07:25:41;17.98;;;11.68;;
12591;SDS011;6361;52.120;5.108;2024-03-17T07:28:07;17.55;;;10.95;;
12591;SDS011;6361;52.120;5.108;2024-03-17T07:30:33;17.17;;;11.90;;
12591;SDS011;6361;52.120;5.108;2024-03-17T07:32:59;16.73;;;12.02;;
12591;SDS011;6361;52.120;5.108;2024-03-17T07:35:24;16.75;;;11.95;;
12591;SDS011;6361;52.120;5.108;2024-03-17T07:37:49;15.18;;;11.65;;
12591;SDS011;6361;52.120;5.108;2024-03-17T07:40:14;15.60;;;11.65;;
12591;SDS011;6361;52.120;5.108;2024-03-17T07:42:40;16.35;;;11.77;;
12591;SDS011;6361;52.120;5.108;2024-03-17T07:45:07;16.38;;;12.13;;
12591;SDS011;6361;52.120;5.108;2024-03-17T07:47:32;16.13;;;11.80;;
12591;SDS011;6361;52.120;5.108;2024-03-17T07:50:03;18.45;;;12.20;;
12591;SDS011;6361;52.120;5.108;2024-03-17T07:52:30;18.00;;;12.10;;
12591;SDS011;6361;52.120;5.108;2024-03-17T07:54:56;15.75;;;11.38;;
12591;SDS011;6361;52.120;5.108;2024-03-17T07:57:22;16.35;;;12.32;;
12591;SDS011;6361;52.120;5.108;2024-03-17T07:59:49;16.95;;;12.13;;
12591;SDS011;6361;52.120;5.108;2024-03-17T08:02:16;15.13;;;12.10;;
12591;SDS011;6361;52.120;5.108;2024-03-17T08:04:41;15.77;;;11.50;;
12591;SDS011;6361;52.120;5.108;2024-03-17T08:07:07;18.80;;;12.18;;
12591;SDS011;6361;52.120;5.108;2024-03-17T08:09:32;15.57;;;12.20;;
12591;SDS011;6361;52.120;5.108;2024-03-17T08:11:58;16.48;;;12.48;;
12591;SDS011;6361;52.120;5.108;2024-03-17T08:14:23;17.40;;;12.20;;
12591;SDS011;6361;52.120;5.108;2024-03-17T08:16:49;19.40;;;12.52;;
12591;SDS011;6361;52.120;5.108;2024-03-17T08:19:14;16.60;;;12.88;;
12591;SDS011;6361;52.120;5.108;2024-03-17T08:21:39;17.70;;;12.60;;
12591;SDS011;6361;52.120;5.108;2024-03-17T08:24:05;17.70;;;12.95;;
12591;SDS011;6361;52.120;5.108;2024-03-17T08:26:30;20.60;;;12.02;;
12591;SDS011;6361;52.120;5.108;2024-03-17T08:28:56;17.17;;;12.50;;
12591;SDS011;6361;52.120;5.108;2024-03-17T08:31:22;18.75;;;12.93;;
12591;SDS011;6361;52.120;5.108;2024-03-17T08:33:47;18.95;;;12.82;;
12591;SDS011;6361;52.120;5.108;2024-03-17T08:36:12;18.88;;;11.80;;
12591;SDS011;6361;52.120;5.108;2024-03-17T08:38:41;20.05;;;12.98;;
12591;SDS011;6361;52.120;5.108;2024-03-17T08:41:09;22.23;;;13.07;;
12591;SDS011;6361;52.120;5.108;2024-03-17T08:43:35;19.45;;;12.55;;
12591;SDS011;6361;52.120;5.108;2024-03-17T08:46:05;14.60;;;11.70;;
12591;SDS011;6361;52.120;5.108;2024-03-17T08:48:34;15.80;;;11.75;;
12591;SDS011;6361;52.120;5.108;2024-03-17T08:51:01;16.60;;;11.95;;
12591;SDS011;6361;52.120;5.108;2024-03-17T08:53:27;17.08;;;11.57;;
12591;SDS011;6361;52.120;5.108;2024-03-17T08:55:53;16.85;;;12.43;;
12591;SDS011;6361;52.120;5.108;2024-03-17T08:58:19;18.85;;;12.05;;
12591;SDS011;6361;52.120;5.108;2024-03-17T09:00:45;19.20;;;12.65;;
12591;SDS011;6361;52.120;5.108;2024-03-17T09:03:12;18.42;;;11.77;;
12591;SDS011;6361;52.120;5.108;2024-03-17T09:05:38;14.70;;;10.85;;
12591;SDS011;6361;52.120;5.108;2024-03-17T09:08:07;15.70;;;11.10;;
12591;SDS011;6361;52.120;5.108;2024-03-17T09:10:42;14.88;;;11.75;;
12591;SDS011;6361;52.120;5.108;2024-03-17T09:13:15;14.40;;;10.63;;
12591;SDS011;6361;52.120;5.108;2024-03-17T09:15:54;16.15;;;11.40;;
12591;SDS011;6361;52.120;5.108;2024-03-17T09:18:33;16.23;;;11.07;;
12591;SDS011;6361;52.120;5.108;2024-03-17T09:23:24;16.40;;;11.43;;
12591;SDS011;6361;52.120;5.108;2024-03-17T09:28:24;17.42;;;12.13;;
12591;SDS011;6361;52.120;5.108;2024-03-17T09:30:49;13.43;;;10.80;;
12591;SDS011;6361;52.120;5.108;2024-03-17T09:33:17;15.25;;;11.32;;
12591;SDS011;6361;52.120;5.108;2024-03-17T09:35:42;15.52;;;11.52;;
12591;SDS011;6361;52.120;5.108;2024-03-17T09:38:07;18.45;;;10.27;;
12591;SDS011;6361;52.120;5.108;2024-03-17T09:40:33;14.98;;;10.63;;
12591;SDS011;6361;52.120;5.108;2024-03-17T09:42:58;12.82;;;10.63;;
12591;SDS011;6361;52.120;5.108;2024-03-17T09:45:24;15.70;;;10.32;;
12591;SDS011;6361;52.120;5.108;2024-03-17T09:47:50;16.52;;;10.50;;
12591;SDS011;6361;52.120;5.108;2024-03-17T09:50:16;13.85;;;10.90;;
12591;SDS011;6361;52.120;5.108;2024-03-17T09:52:44;15.90;;;10.73;;
12591;SDS011;6361;52.120;5.108;2024-03-17T09:55:13;15.57;;;10.43;;
12591;SDS011;6361;52.120;5.108;2024-03-17T09:57:40;14.73;;;9.85;;
12591;SDS011;6361;52.120;5.108;2024-03-17T10:00:09;14.77;;;10.75;;
12591;SDS011;6361;52.120;5.108;2024-03-17T10:02:41;18.17;;;10.50;;
12591;SDS011;6361;52.120;5.108;2024-03-17T10:05:17;14.15;;;10.13;;
12591;SDS011;6361;52.120;5.108;2024-03-17T10:07:43;13.98;;;10.35;;
12591;SDS011;6361;52.120;5.108;2024-03-17T10:10:12;14.48;;;10.32;;
12591;SDS011;6361;52.120;5.108;2024-03-17T10:12:38;14.60;;;11.00;;
12591;SDS011;6361;52.120;5.108;2024-03-17T10:15:03;12.75;;;9.68;;
12591;SDS011;6361;52.120;5.108;2024-03-17T10:17:33;15.23;;;10.43;;
12591;SDS011;6361;52.120;5.108;2024-03-17T10:20:16;13.50;;;10.32;;
12591;SDS011;6361;52.120;5.108;2024-03-17T10:25:31;15.27;;;9.73;;
12591;SDS011;6361;52.120;5.108;2024-03-17T10:27:58;15.50;;;9.25;;
12591;SDS011;6361;52.120;5.108;2024-03-17T10:30:24;13.65;;;10.10;;
12591;SDS011;6361;52.120;5.108;2024-03-17T10:35:33;15.95;;;9.32;;
12591;SDS011;6361;52.120;5.108;2024-03-17T10:38:01;12.25;;;9.20;;
12591;SDS011;6361;52.120;5.108;2024-03-17T10:40:28;12.40;;;9.30;;
12591;SDS011;6361;52.120;5.108;2024-03-17T10:42:55;12.88;;;9.43;;
12591;SDS011;6361;52.120;5.108;2024-03-17T10:45:21;13.82;;;9.13;;
12591;SDS011;6361;52.120;5.108;2024-03-17T10:47:50;16.48;;;9.77;;
12591;SDS011;6361;52.120;5.108;2024-03-17T10:50:20;12.90;;;9.43;;
12591;SDS011;6361;52.120;5.108;2024-03-17T10:52:47;16.45;;;9.63;;
12591;SDS011;6361;52.120;5.108;2024-03-17T10:57:47;11.73;;;9.02;;
12591;SDS011;6361;52.120;5.108;2024-03-17T11:00:13;14.55;;;9.43;;
12591;SDS011;6361;52.120;5.108;2024-03-17T11:02:43;12.75;;;9.25;;
12591;SDS011;6361;52.120;5.108;2024-03-17T11:05:15;16.52;;;9.07;;
12591;SDS011;6361;52.120;5.108;2024-03-17T11:07:43;12.50;;;8.60;;
12591;SDS011;6361;52.120;5.108;2024-03-17T11:10:22;13.60;;;9.60;;
12591;SDS011;6361;52.120;5.108;2024-03-17T11:12:53;13.80;;;9.20;;
12591;SDS011;6361;52.120;5.108;2024-03-17T11:17:51;13.55;;;9.23;;
12591;SDS011;6361;52.120;5.108;2024-03-17T11:20:21;12.23;;;8.93;;
12591;SDS011;6361;52.120;5.108;2024-03-17T11:22:50;14.52;;;9.52;;
12591;SDS011;6361;52.120;5.108;2024-03-17T11:27:55;13.70;;;10.20;;
12591;SDS011;6361;52.120;5.108;2024-03-17T11:39:03;13.57;;;9.40;;
12591;SDS011;6361;52.120;5.108;2024-03-17T11:41:42;16.83;;;10.00;;
12591;SDS011;6361;52.120;5.108;2024-03-17T11:46:51;13.27;;;9.50;;
12591;SDS011;6361;52.120;5.108;2024-03-17T11:51:47;14.38;;;9.98;;
12591;SDS011;6361;52.120;5.108;2024-03-17T11:54:14;14.27;;;9.52;;
12591;SDS011;6361;52.120;5.108;2024-03-17T11:56:43;14.95;;;10.13;;
12591;SDS011;6361;52.120;5.108;2024-03-17T11:59:16;11.10;;;9.25;;
12591;SDS011;6361;52.120;5.108;2024-03-17T12:01:50;11.27;;;9.50;;
12591;SDS011;6361;52.120;5.108;2024-03-17T12:04:17;14.38;;;9.82;;
12591;SDS011;6361;52.120;5.108;2024-03-17T12:06:47;15.95;;;9.63;;
12591;SDS011;6361;52.120;5.108;2024-03-17T12:09:18;14.93;;;9.85;;
12591;SDS011;6361;52.120;5.108;2024-03-17T12:11:45;14.32;;;10.40;;
12591;SDS011;6361;52.120;5.108;2024-03-17T12:14:15;13.63;;;9.88;;
12591;SDS011;6361;52.120;5.108;2024-03-17T12:16:55;14.80;;;10.45;;
12591;SDS011;6361;52.120;5.108;2024-03-17T12:19:24;17.15;;;10.55;;
12591;SDS011;6361;52.120;5.108;2024-03-17T12:21:51;16.90;;;9.88;;
12591;SDS011;6361;52.120;5.108;2024-03-17T12:24:19;13.50;;;9.43;;
12591;SDS011;6361;52.120;5.108;2024-03-17T12:26:46;16.38;;;10.10;;
12591;SDS011;6361;52.120;5.108;2024-03-17T12:31:55;15.63;;;10.10;;
12591;SDS011;6361;52.120;5.108;2024-03-17T12:34:21;13.60;;;10.60;;
12591;SDS011;6361;52.120;5.108;2024-03-17T12:36:47;14.43;;;10.02;;
12591;SDS011;6361;52.120;5.108;2024-03-17T12:44:38;16.40;;;10.02;;
12591;SDS011;6361;52.120;5.108;2024-03-17T12:47:19;13.57;;;9.88;;
12591;SDS011;6361;52.120;5.108;2024-03-17T12:49:48;15.02;;;10.00;;
12591;SDS011;6361;52.120;5.108;2024-03-17T12:52:25;15.55;;;10.77;;
12591;SDS011;6361;52.120;5.108;2024-03-17T12:55:08;16.45;;;10.38;;
12591;SDS011;6361;52.120;5.108;2024-03-17T12:58:04;19.67;;;12.85;;
12591;SDS011;6361;52.120;5.108;2024-03-17T13:01:05;15.48;;;10.13;;
12591;SDS011;6361;52.120;5.108;2024-03-17T13:03:34;16.25;;;10.85;;
12591;SDS011;6361;52.120;5.108;2024-03-17T13:06:01;15.13;;;10.85;;
12591;SDS011;6361;52.120;5.108;2024-03-17T13:08:31;15.60;;;11.23;;
12591;SDS011;6361;52.120;5.108;2024-03-17T13:11:00;16.23;;;11.25;;
12591;SDS011;6361;52.120;5.108;2024-03-17T13:13:25;16.05;;;10.77;;
12591;SDS011;6361;52.120;5.108;2024-03-17T13:15:51;15.70;;;10.70;;
12591;SDS011;6361;52.120;5.108;2024-03-17T13:18:17;14.18;;;10.63;;
12591;SDS011;6361;52.120;5.108;2024-03-17T13:20:46;14.48;;;10.50;;
12591;SDS011;6361;52.120;5.108;2024-03-17T13:23:14;18.80;;;10.00;;
12591;SDS011;6361;52.120;5.108;2024-03-17T13:25:40;15.80;;;10.27;;
12591;SDS011;6361;52.120;5.108;2024-03-17T13:28:08;15.20;;;9.77;;
12591;SDS011;6361;52.120;5.108;2024-03-17T13:30:33;13.32;;;10.20;;
12591;SDS011;6361;52.120;5.108;2024-03-17T13:33:01;16.05;;;10.77;;
12591;SDS011;6361;52.120;5.108;2024-03-17T13:35:29;13.52;;;9.82;;
12591;SDS011;6361;52.120;5.108;2024-03-17T13:37:56;15.90;;;9.77;;
12591;SDS011;6361;52.120;5.108;2024-03-17T13:40:25;14.70;;;9.65;;
12591;SDS011;6361;52.120;5.108;2024-03-17T13:42:52;16.27;;;9.93;;
12591;SDS011;6361;52.120;5.108;2024-03-17T13:45:18;14.75;;;10.13;;
12591;SDS011;6361;52.120;5.108;2024-03-17T13:47:58;11.77;;;9.60;;
12591;SDS011;6361;52.120;5.108;2024-03-17T13:50:29;17.52;;;10.65;;
12591;SDS011;6361;52.120;5.108;2024-03-17T13:52:55;14.95;;;10.05;;
12591;SDS011;6361;52.120;5.108;2024-03-17T13:55:21;14.52;;;10.48;;
12591;SDS011;6361;52.120;5.108;2024-03-17T13:57:54;14.98;;;10.05;;
12591;SDS011;6361;52.120;5.108;2024-03-17T14:00:21;14.68;;;10.90;;
12591;SDS011;6361;52.120;5.108;2024-03-17T14:02:48;14.25;;;10.57;;
12591;SDS011;6361;52.120;5.108;2024-03-17T14:05:15;14.40;;;10.38;;
12591;SDS011;6361;52.120;5.108;2024-03-17T14:07:42;11.85;;;9.70;;
12591;SDS011;6361;52.120;5.108;2024-03-17T14:10:08;14.63;;;10.15;;
12591;SDS011;6361;52.120;5.108;2024-03-17T14:12:37;13.52;;;10.50;;
12591;SDS011;6361;52.120;5.108;2024-03-17T14:15:09;14.13;;;9.63;;
12591;SDS011;6361;52.120;5.108;2024-03-17T14:17:38;13.35;;;9.80;;
12591;SDS011;6361;52.120;5.108;2024-03-17T14:20:07;17.92;;;10.10;;
12591;SDS011;6361;52.120;5.108;2024-03-17T14:22:36;13.60;;;8.95;;
12591;SDS011;6361;52.120;5.108;2024-03-17T14:25:03;12.73;;;9.48;;
12591;SDS011;6361;52.120;5.108;2024-03-17T14:27:32;15.75;;;10.38;;
12591;SDS011;6361;52.120;5.108;2024-03-17T14:29:57;13.20;;;9.77;;
12591;SDS011;6361;52.120;5.108;2024-03-17T14:32:23;13.57;;;9.52;;
12591;SDS011;6361;52.120;5.108;2024-03-17T14:34:48;12.75;;;9.40;;
12591;SDS011;6361;52.120;5.108;2024-03-17T14:37:14;14.40;;;9.15;;
12591;SDS011;6361;52.120;5.108;2024-03-17T14:39:39;13.68;;;10.02;;
12591;SDS011;6361;52.120;5.108;2024-03-17T14:42:05;14.25;;;9.73;;
12591;SDS011;6361;52.120;5.108;2024-03-17T14:44:31;12.40;;;9.25;;
12591;SDS011;6361;52.120;5.108;2024-03-17T14:46:56;12.95;;;9.07;;
12591;SDS011;6361;52.120;5.108;2024-03-17T14:49:21;13.95;;;9.52;;
12591;SDS011;6361;52.120;5.108;2024-03-17T14:51:47;16.30;;;10.20;;
12591;SDS011;6361;52.120;5.108;2024-03-17T14:54:15;16.27;;;10.27;;
12591;SDS011;6361;52.120;5.108;2024-03-17T14:56:40;15.88;;;10.10;;
12591;SDS011;6361;52.120;5.108;2024-03-17T14:59:06;12.38;;;9.57;;
12591;SDS011;6361;52.120;5.108;2024-03-17T15:01:31;13.68;;;9.85;;
12591;SDS011;6361;52.120;5.108;2024-03-17T15:03:59;14.00;;;10.02;;
12591;SDS011;6361;52.120;5.108;2024-03-17T15:06:24;16.27;;;10.20;;
12591;SDS011;6361;52.120;5.108;2024-03-17T15:08:50;14.40;;;10.45;;
12591;SDS011;6361;52.120;5.108;2024-03-17T15:11:15;12.23;;;9.52;;
12591;SDS011;6361;52.120;5.108;2024-03-17T15:13:43;15.90;;;10.48;;
12591;SDS011;6361;52.120;5.108;2024-03-17T15:16:09;13.20;;;10.43;;
12591;SDS011;6361;52.120;5.108;2024-03-17T15:18:34;16.08;;;10.35;;
12591;SDS011;6361;52.120;5.108;2024-03-17T15:21:00;16.40;;;10.07;;
12591;SDS011;6361;52.120;5.108;2024-03-17T15:23:26;14.25;;;9.15;;